Time;durP1;ratioP1;P1;durP2;ratioP2;P2;SDS_P1;SDS_P2;PMS_P1;PMS_P2;Temp;Humidity;BMP_temperature;BMP_pressure;BME280_temperature;BME280_humidity;BME280_pressure;Samples;Min_cycle;Max_cycle;Signal;HPM_P1;HPM_P2
2023/11/18 00:01:24;;;;;;;0.30;0.30;;;10.40;99.90;;;;;;5018128;28;20053;-77
2023/11/18 00:03:49;;;;;;;0.47;0.47;;;10.50;99.90;;;;;;5010987;28;20026;-78
2023/11/18 00:06:15;;;;;;;0.30;0.30;;;10.50;99.90;;;;;;5026487;28;20360;-77
2023/11/18 00:08:41;;;;;;;0.50;0.50;;;10.50;99.90;;;;;;5030199;28;20108;-77
2023/11/18 00:11:06;;;;;;;1.00;1.00;;;10.60;99.90;;;;;;5023610;28;20030;-78
2023/11/18 00:13:32;;;;;;;2.33;1.15;;;10.50;99.90;;;;;;5010481;28;20061;-77
2023/11/18 00:16:01;;;;;;;0.60;0.60;;;10.50;99.90;;;;;;5010442;28;20038;-77
2023/11/18 00:18:27;;;;;;;0.30;0.30;;;10.40;99.90;;;;;;5010405;28;20034;-77
2023/11/18 00:20:52;;;;;;;0.20;0.20;;;10.40;99.90;;;;;;5003056;28;20364;-77
2023/11/18 00:23:18;;;;;;;2.20;0.50;;;10.40;99.90;;;;;;5026416;28;20018;-78
2023/11/18 00:25:45;;;;;;;0.47;0.43;;;10.50;99.90;;;;;;5026284;28;20057;-77
2023/11/18 00:28:13;;;;;;;0.30;0.30;;;10.50;99.90;;;;;;5026189;28;20017;-77
2023/11/18 00:30:42;;;;;;;0.28;0.28;;;10.40;99.90;;;;;;5009063;28;20487;-77
2023/11/18 00:33:11;;;;;;;0.40;0.30;;;10.40;99.90;;;;;;5021321;28;20066;-77
2023/11/18 00:35:37;;;;;;;0.40;0.40;;;10.40;99.90;;;;;;5026296;28;20402;-77
2023/11/18 00:38:03;;;;;;;0.28;0.28;;;10.40;99.90;;;;;;5018581;28;20036;-77
2023/11/18 00:40:30;;;;;;;0.30;0.30;;;10.40;99.90;;;;;;5023405;28;20046;-77
2023/11/18 00:42:56;;;;;;;1.55;0.40;;;10.40;99.90;;;;;;4992575;28;20022;-77
2023/11/18 00:45:22;;;;;;;0.20;0.20;;;10.50;99.90;;;;;;5013761;28;20109;-77
2023/11/18 00:47:48;;;;;;;0.28;0.20;;;10.50;99.90;;;;;;5013757;28;20121;-77
2023/11/18 00:50:14;;;;;;;1.23;0.30;;;10.50;99.90;;;;;;5009725;28;20026;-77
2023/11/18 00:52:41;;;;;;;0.30;0.30;;;10.50;99.90;;;;;;5024181;28;20452;-77
2023/11/18 00:55:10;;;;;;;0.25;0.25;;;10.50;99.90;;;;;;5008513;28;20083;-77
2023/11/18 00:57:39;;;;;;;0.52;0.35;;;10.50;99.90;;;;;;5005396;28;20026;-77
2023/11/18 01:00:09;;;;;;;0.20;0.20;;;10.50;99.90;;;;;;5009655;28;20018;-78
2023/11/18 01:02:35;;;;;;;0.20;0.20;;;10.40;99.90;;;;;;5002751;28;20026;-77
2023/11/18 01:05:00;;;;;;;0.25;0.25;;;10.40;99.90;;;;;;5016690;28;20029;-77
2023/11/18 01:07:27;;;;;;;0.30;0.30;;;10.40;99.90;;;;;;5009939;28;20050;-77
2023/11/18 01:09:52;;;;;;;0.17;0.17;;;10.50;99.90;;;;;;5022692;28;20105;-77
2023/11/18 01:12:18;;;;;;;0.20;0.20;;;10.40;99.90;;;;;;5017305;28;20101;-77
2023/11/18 01:14:44;;;;;;;0.50;0.25;;;10.40;99.90;;;;;;5021110;28;20033;-77
2023/11/18 01:17:09;;;;;;;0.47;0.47;;;10.40;99.90;;;;;;5009550;28;20018;-77
2023/11/18 01:19:35;;;;;;;0.85;0.20;;;10.40;99.90;;;;;;5020729;28;20060;-77
2023/11/18 01:22:05;;;;;;;0.30;0.30;;;10.30;99.90;;;;;;5025596;28;20036;-77
2023/11/18 01:24:31;;;;;;;0.20;0.20;;;10.30;99.90;;;;;;5024431;28;20475;-77
2023/11/18 01:26:57;;;;;;;1.63;0.30;;;10.30;99.90;;;;;;5021153;28;20026;-78
2023/11/18 01:29:22;;;;;;;0.25;0.25;;;10.20;99.90;;;;;;5015630;28;20083;-78
2023/11/18 01:31:48;;;;;;;0.40;0.40;;;10.30;99.90;;;;;;5020040;28;20226;-77
2023/11/18 01:34:14;;;;;;;0.20;0.20;;;10.20;99.90;;;;;;5029154;28;20536;-77
2023/11/18 01:37:17;;;;;;;0.30;0.30;;;10.20;99.90;;;;;;5038089;28;20533;-77
2023/11/18 01:39:43;;;;;;;0.30;0.30;;;10.20;99.90;;;;;;5012737;28;20049;-78
2023/11/18 01:42:09;;;;;;;0.30;0.30;;;10.10;99.90;;;;;;5023522;28;20502;-77
2023/11/18 01:44:35;;;;;;;0.30;0.30;;;10.00;99.90;;;;;;5032443;28;20104;-77
2023/11/18 01:47:05;;;;;;;0.20;0.20;;;9.90;1.00;;;;;;5011265;28;20033;-77
2023/11/18 01:49:32;;;;;;;0.85;0.30;;;10.00;99.90;;;;;;5014957;28;20071;-78
2023/11/18 01:52:01;;;;;;;0.30;0.30;;;10.10;99.90;;;;;;5025176;28;20091;-77
2023/11/18 01:54:28;;;;;;;0.40;0.40;;;10.00;99.90;;;;;;5020847;28;20013;-77
2023/11/18 01:56:55;;;;;;;0.30;0.30;;;10.00;99.90;;;;;;5026850;28;20045;-77
2023/11/18 01:59:20;;;;;;;0.20;0.20;;;9.90;99.90;;;;;;4994689;28;20113;-78
2023/11/18 02:01:59;;;;;;;0.82;0.30;;;9.90;1.00;;;;;;4994663;28;20117;-77
2023/11/18 02:04:25;;;;;;;0.50;0.22;;;9.90;99.90;;;;;;5008150;28;20021;-77
2023/11/18 02:06:52;;;;;;;0.35;0.20;;;10.00;99.90;;;;;;5020384;28;20026;-77
2023/11/18 02:09:19;;;;;;;0.22;0.22;;;10.00;99.90;;;;;;5024027;28;20037;-78
2023/11/18 02:12:17;;;;;;;0.30;0.30;;;9.90;99.90;;;;;;5011927;28;20400;-77
2023/11/18 02:14:46;;;;;;;0.20;0.20;;;10.00;99.90;;;;;;5010837;28;20446;-77
2023/11/18 02:17:17;;;;;;;0.20;0.20;;;10.00;99.90;;;;;;5016358;28;20022;-77
2023/11/18 02:19:43;;;;;;;1.45;0.20;;;10.00;99.90;;;;;;5019438;28;20029;-79
2023/11/18 02:22:11;;;;;;;0.20;0.20;;;10.00;99.90;;;;;;5005489;28;20057;-77
2023/11/18 02:24:37;;;;;;;0.10;0.10;;;10.00;99.90;;;;;;5015573;28;20086;-77
2023/11/18 02:27:07;;;;;;;0.20;0.20;;;9.90;99.90;;;;;;5019694;28;20050;-78
2023/11/18 02:29:35;;;;;;;0.20;0.20;;;9.90;99.90;;;;;;5027806;28;20033;-77
2023/11/18 02:32:44;;;;;;;0.20;0.20;;;9.90;99.90;;;;;;5019972;28;20509;-77
2023/11/18 02:35:35;;;;;;;0.20;0.20;;;9.90;99.90;;;;;;5007779;28;20049;-79
2023/11/18 02:38:02;;;;;;;0.20;0.20;;;9.90;99.90;;;;;;5001829;28;20068;-77
2023/11/18 02:40:35;;;;;;;0.20;0.20;;;9.90;99.90;;;;;;5008428;28;20019;-78
2023/11/18 02:43:05;;;;;;;0.20;0.20;;;9.90;99.90;;;;;;4999436;28;20027;-77
2023/11/18 02:45:31;;;;;;;0.10;0.10;;;9.90;99.90;;;;;;4997248;28;20029;-79
2023/11/18 02:47:58;;;;;;;0.38;0.38;;;10.00;99.90;;;;;;4988054;28;20439;-77
2023/11/18 02:50:29;;;;;;;0.43;0.25;;;10.00;99.90;;;;;;4999231;28;20113;-77
2023/11/18 02:52:55;;;;;;;1.55;0.20;;;10.00;99.90;;;;;;5003304;28;20037;-78
2023/11/18 02:55:22;;;;;;;0.15;0.15;;;10.10;99.90;;;;;;4998395;28;20038;-78
2023/11/18 02:57:49;;;;;;;0.20;0.20;;;10.10;99.90;;;;;;4999231;28;20054;-77
2023/11/18 03:00:22;;;;;;;0.20;0.20;;;10.10;99.90;;;;;;5001554;28;20083;-78
2023/11/18 03:02:54;;;;;;;0.20;0.20;;;10.10;99.90;;;;;;4999305;28;20109;-78
2023/11/18 03:05:20;;;;;;;;;;;10.00;99.90;;;;;;5011189;28;20054;-77
2023/11/18 03:07:49;;;;;;;0.20;0.20;;;10.10;99.90;;;;;;5003408;28;19967;-78
2023/11/18 03:10:22;;;;;;;0.10;0.10;;;10.10;99.90;;;;;;5011086;28;20029;-78
2023/11/18 03:12:52;;;;;;;0.30;0.30;;;10.10;99.90;;;;;;5003627;28;20117;-78
2023/11/18 03:15:18;;;;;;;0.20;0.20;;;10.20;99.90;;;;;;4998033;28;20018;-78
2023/11/18 03:17:49;;;;;;;0.20;0.20;;;10.20;99.90;;;;;;4991121;28;20038;-78
2023/11/18 03:20:20;;;;;;;0.20;0.20;;;10.20;99.90;;;;;;4999258;28;20025;-77
2023/11/18 03:22:47;;;;;;;0.20;0.20;;;10.20;99.90;;;;;;4999903;28;20030;-78
2023/11/18 03:25:13;;;;;;;0.20;0.20;;;10.30;99.90;;;;;;5001112;28;20476;-77
2023/11/18 03:27:39;;;;;;;0.20;0.20;;;10.20;99.90;;;;;;4998429;28;20072;-77
2023/11/18 03:30:07;;;;;;;0.40;0.40;;;10.20;99.90;;;;;;5003323;28;20034;-78
2023/11/18 03:32:32;;;;;;;0.30;0.30;;;10.20;99.90;;;;;;5007927;28;20102;-78
2023/11/18 03:35:01;;;;;;;0.20;0.20;;;10.20;99.90;;;;;;5015265;28;20082;-77
2023/11/18 03:37:26;;;;;;;0.20;0.20;;;10.10;99.90;;;;;;5019203;28;20387;-77
2023/11/18 03:39:53;;;;;;;0.30;0.30;;;10.10;99.90;;;;;;5030383;28;20017;-78
2023/11/18 03:42:19;;;;;;;0.30;0.30;;;10.10;99.90;;;;;;5026732;28;20075;-77
2023/11/18 03:44:47;;;;;;;0.20;0.20;;;10.20;99.90;;;;;;5020374;28;20372;-77
2023/11/18 03:47:14;;;;;;;0.20;0.20;;;10.20;99.90;;;;;;5010939;28;20030;-77
2023/11/18 03:49:40;;;;;;;0.20;0.20;;;10.20;99.90;;;;;;5014614;28;20495;-77
2023/11/18 03:52:06;;;;;;;0.20;0.20;;;10.20;99.90;;;;;;5023400;28;20096;-77
2023/11/18 03:54:32;;;;;;;0.20;0.20;;;10.30;99.90;;;;;;5015254;28;20026;-77
2023/11/18 03:56:59;;;;;;;0.22;0.22;;;10.30;99.90;;;;;;5022796;28;20033;-77
2023/11/18 03:59:25;;;;;;;0.15;0.15;;;10.30;99.90;;;;;;5018592;28;20032;-77
2023/11/18 04:01:51;;;;;;;0.35;0.30;;;10.30;99.90;;;;;;5022477;28;20387;-77
2023/11/18 04:04:17;;;;;;;0.15;0.15;;;10.40;99.90;;;;;;5030438;28;20026;-78
2023/11/18 04:06:43;;;;;;;0.10;0.10;;;10.40;99.90;;;;;;5029954;28;20025;-77
2023/11/18 04:09:10;;;;;;;0.20;0.20;;;10.40;99.90;;;;;;5009062;28;20128;-78
2023/11/18 04:11:36;;;;;;;0.32;0.20;;;10.40;99.90;;;;;;5017823;28;20030;-77
2023/11/18 04:14:03;;;;;;;0.10;0.10;;;10.30;99.90;;;;;;5022724;28;20098;-77
2023/11/18 04:16:29;;;;;;;1.17;0.20;;;10.40;99.90;;;;;;5019784;28;20120;-77
2023/11/18 04:18:55;;;;;;;0.20;0.17;;;10.40;99.90;;;;;;5028359;28;20112;-77
2023/11/18 04:21:21;;;;;;;0.20;0.20;;;10.30;99.90;;;;;;5008985;28;20479;-76
2023/11/18 04:23:47;;;;;;;0.20;0.20;;;10.30;99.90;;;;;;5008720;28;20029;-77
2023/11/18 04:26:13;;;;;;;0.20;0.20;;;10.30;99.90;;;;;;5017503;28;20033;-78
2023/11/18 04:28:39;;;;;;;0.20;0.20;;;10.30;99.90;;;;;;5010059;28;20036;-77
2023/11/18 04:31:05;;;;;;;0.20;0.20;;;10.30;99.90;;;;;;5017471;28;20113;-76
2023/11/18 04:33:31;;;;;;;0.30;0.20;;;10.20;99.90;;;;;;5006390;28;20036;-77
2023/11/18 04:35:57;;;;;;;0.20;0.20;;;10.20;99.90;;;;;;5017832;28;20053;-77
2023/11/18 04:38:23;;;;;;;0.20;0.20;;;10.20;99.90;;;;;;5021554;28;20483;-76
2023/11/18 04:40:49;;;;;;;0.52;0.28;;;10.10;99.90;;;;;;5018967;28;20029;-78
2023/11/18 04:43:15;;;;;;;0.32;0.17;;;10.10;99.90;;;;;;4992132;28;20037;-78
2023/11/18 04:45:42;;;;;;;0.30;0.30;;;10.10;99.90;;;;;;5024080;28;20575;-78
2023/11/18 04:48:08;;;;;;;0.17;0.17;;;10.10;99.90;;;;;;5013951;28;20033;-78
2023/11/18 04:50:34;;;;;;;0.20;0.20;;;10.20;99.90;;;;;;5018931;28;20053;-77
2023/11/18 04:53:00;;;;;;;0.20;0.20;;;10.20;99.90;;;;;;5016581;28;20060;-78
2023/11/18 04:55:26;;;;;;;0.10;0.10;;;10.20;99.90;;;;;;5017299;28;20040;-77
2023/11/18 04:57:52;;;;;;;1.08;0.20;;;10.20;99.90;;;;;;5016046;28;20036;-77
2023/11/18 05:00:19;;;;;;;0.20;0.20;;;10.20;99.90;;;;;;5004972;28;20312;-77
2023/11/18 05:02:48;;;;;;;1.20;0.10;;;10.20;99.90;;;;;;5011488;28;20025;-77
2023/11/18 05:05:15;;;;;;;0.10;0.10;;;10.20;99.90;;;;;;5088312;28;20022;-79
2023/11/18 05:07:42;;;;;;;0.30;0.30;;;10.20;99.90;;;;;;5022422;28;20026;-76
2023/11/18 05:10:08;;;;;;;2.83;0.10;;;10.30;99.90;;;;;;5015342;28;20116;-76
2023/11/18 05:12:34;;;;;;;0.20;0.20;;;10.20;99.90;;;;;;5008286;28;20030;-77
2023/11/18 05:15:00;;;;;;;0.55;0.50;;;10.20;99.90;;;;;;5003134;28;20036;-77
2023/11/18 05:17:26;;;;;;;0.10;0.10;;;10.30;99.90;;;;;;5016657;28;20026;-77
2023/11/18 05:19:53;;;;;;;0.20;0.20;;;10.30;99.90;;;;;;5013083;28;20032;-77
2023/11/18 05:22:20;;;;;;;0.95;0.25;;;10.30;99.90;;;;;;5012913;28;20071;-77
2023/11/18 05:24:47;;;;;;;0.10;0.10;;;10.30;99.90;;;;;;5004391;28;20032;-76
2023/11/18 05:27:17;;;;;;;0.13;0.10;;;10.30;99.90;;;;;;5025033;28;20047;-77
2023/11/18 05:29:47;;;;;;;0.20;0.20;;;10.30;99.90;;;;;;5017392;28;20027;-78
2023/11/18 05:32:13;;;;;;;0.30;0.30;;;10.30;99.90;;;;;;5024819;28;20105;-78
2023/11/18 05:34:38;;;;;;;0.65;0.20;;;10.30;99.90;;;;;;5010996;28;20147;-77
2023/11/18 05:37:04;;;;;;;0.20;0.20;;;10.30;99.90;;;;;;5021039;28;20034;-77
2023/11/18 05:39:31;;;;;;;0.20;0.20;;;10.30;99.90;;;;;;5016034;28;20416;-78
2023/11/18 05:41:59;;;;;;;0.30;0.30;;;10.20;99.90;;;;;;5017507;28;20022;-77
2023/11/18 05:44:46;;;;;;;0.90;0.75;;;10.20;99.90;;;;;;4999156;28;20443;-77
2023/11/18 05:47:12;;;;;;;0.10;0.10;;;10.20;99.90;;;;;;5020794;28;20025;-77
2023/11/18 05:49:38;;;;;;;0.20;0.20;;;10.30;99.90;;;;;;5000178;28;20022;-77
2023/11/18 05:52:05;;;;;;;0.20;0.20;;;10.30;99.90;;;;;;5010562;28;20098;-76
2023/11/18 05:54:30;;;;;;;0.20;0.20;;;10.20;99.90;;;;;;5010360;28;20026;-78
2023/11/18 05:56:56;;;;;;;0.22;0.22;;;10.20;99.90;;;;;;5021154;28;20033;-79
2023/11/18 05:59:23;;;;;;;0.30;0.30;;;10.20;99.90;;;;;;5016611;28;20030;-77
2023/11/18 06:01:49;;;;;;;0.10;0.10;;;10.30;99.90;;;;;;5024671;28;20033;-77
2023/11/18 06:04:15;;;;;;;0.20;0.20;;;10.20;99.90;;;;;;5026363;28;20026;-78
2023/11/18 06:06:42;;;;;;;0.30;0.30;;;10.20;99.90;;;;;;5015335;28;20029;-76
2023/11/18 06:09:15;;;;;;;1.55;0.20;;;10.20;99.90;;;;;;5009947;28;20217;-78
2023/11/18 06:11:41;;;;;;;0.70;0.30;;;10.20;99.90;;;;;;5022111;28;20106;-77
2023/11/18 06:14:08;;;;;;;0.38;0.20;;;10.20;99.90;;;;;;5026163;28;20033;-78
2023/11/18 06:19:18;;;;;;;0.20;0.20;;;10.10;99.90;;;;;;5026378;28;20041;-77
2023/11/18 06:21:44;;;;;;;0.20;0.20;;;10.10;99.90;;;;;;5019623;28;20025;-77
2023/11/18 06:24:11;;;;;;;0.20;0.20;;;10.10;99.90;;;;;;5019465;28;20022;-78
2023/11/18 06:26:37;;;;;;;0.20;0.20;;;10.10;99.90;;;;;;5023048;28;20045;-77
2023/11/18 06:29:06;;;;;;;0.80;0.25;;;10.20;99.90;;;;;;5022980;28;20033;-77
2023/11/18 06:31:32;;;;;;;0.25;0.20;;;10.20;99.90;;;;;;5001525;28;20037;-78
2023/11/18 06:33:58;;;;;;;0.32;0.20;;;10.20;99.90;;;;;;5026150;28;20073;-78
2023/11/18 06:36:26;;;;;;;0.63;0.40;;;10.20;99.90;;;;;;5026694;28;20033;-78
2023/11/18 06:38:53;;;;;;;0.20;0.20;;;10.20;99.90;;;;;;5004182;28;20479;-78
2023/11/18 06:41:23;;;;;;;0.10;0.10;;;10.30;99.90;;;;;;5018010;28;20024;-77
2023/11/18 06:46:22;;;;;;;;;;;10.40;99.90;;;;;;5017256;28;20030;-77
2023/11/18 06:48:49;;;;;;;0.25;0.25;;;10.40;99.90;;;;;;4997949;28;20291;-78
2023/11/18 06:51:15;;;;;;;0.20;0.20;;;10.40;99.90;;;;;;5019883;28;20120;-77
2023/11/18 06:53:43;;;;;;;0.20;0.20;;;10.50;99.90;;;;;;5009927;28;20117;-78
2023/11/18 06:56:09;;;;;;;0.20;0.20;;;10.50;99.90;;;;;;5022521;28;20436;-76
2023/11/18 06:58:40;;;;;;;0.22;0.22;;;10.50;99.90;;;;;;5018773;28;20021;-78
2023/11/18 07:01:06;;;;;;;0.30;0.30;;;10.60;99.90;;;;;;5024195;28;20024;-77
2023/11/18 07:03:32;;;;;;;0.20;0.20;;;10.60;99.90;;;;;;5030774;28;20026;-77
2023/11/18 07:05:59;;;;;;;0.20;0.20;;;10.60;99.90;;;;;;5023045;28;20025;-78
2023/11/18 07:08:24;;;;;;;0.20;0.20;;;10.60;99.90;;;;;;5026606;28;20120;-73
2023/11/18 07:10:50;;;;;;;1.00;0.38;;;10.80;99.90;;;;;;5001430;28;20116;-74
2023/11/18 07:13:16;;;;;;;3.97;0.32;;;10.80;99.90;;;;;;5020751;28;20036;-73
2023/11/18 07:15:42;;;;;;;0.15;0.15;;;10.80;99.90;;;;;;4999758;28;20056;-73
2023/11/18 07:18:08;;;;;;;0.30;0.30;;;11.00;99.90;;;;;;5021459;28;20036;-73
2023/11/18 07:20:35;;;;;;;0.22;0.22;;;11.00;99.90;;;;;;5017678;28;20151;-73
2023/11/18 07:23:00;;;;;;;0.20;0.20;;;11.10;99.90;;;;;;5011004;28;20124;-74
2023/11/18 07:25:29;;;;;;;0.40;0.30;;;11.20;99.90;;;;;;5020037;28;20471;-73
2023/11/18 07:27:59;;;;;;;0.30;0.20;;;11.20;99.90;;;;;;5019103;28;20506;-73
2023/11/18 07:30:25;;;;;;;0.20;0.20;;;11.30;99.90;;;;;;5006147;28;20036;-73
2023/11/18 07:32:51;;;;;;;0.20;0.20;;;11.30;99.90;;;;;;5025372;28;20055;-73
2023/11/18 07:35:17;;;;;;;0.10;0.10;;;11.30;99.90;;;;;;5022573;28;20055;-73
2023/11/18 07:37:43;;;;;;;0.50;0.25;;;11.50;99.90;;;;;;4999830;28;20044;-73
2023/11/18 07:40:11;;;;;;;1.77;0.30;;;11.50;99.90;;;;;;5000296;28;20026;-72
2023/11/18 07:42:37;;;;;;;0.20;0.17;;;11.50;99.90;;;;;;5020617;28;20478;-73
2023/11/18 07:45:17;;;;;;;0.13;0.13;;;11.60;99.90;;;;;;4999061;28;20022;-73
2023/11/18 07:47:44;;;;;;;0.20;0.20;;;11.60;99.90;;;;;;5020801;28;20025;-73
2023/11/18 07:50:12;;;;;;;0.10;0.10;;;11.70;99.90;;;;;;5021968;28;20017;-73
2023/11/18 07:52:39;;;;;;;1.48;0.13;;;11.70;99.90;;;;;;5021951;28;20025;-77
2023/11/18 07:55:05;;;;;;;0.20;0.20;;;11.70;99.90;;;;;;5022098;28;20028;-77
2023/11/18 07:57:36;;;;;;;0.22;0.20;;;11.80;99.90;;;;;;5022970;28;20021;-78
2023/11/18 08:00:08;;;;;;;1.58;0.20;;;11.80;99.90;;;;;;5014671;28;20052;-77
2023/11/18 08:02:35;;;;;;;1.55;0.40;;;11.80;99.90;;;;;;5022255;28;20494;-76
2023/11/18 08:05:03;;;;;;;0.50;0.50;;;11.90;99.90;;;;;;5008793;28;20458;-76
2023/11/18 08:07:29;;;;;;;0.20;0.20;;;12.00;99.90;;;;;;5021301;28;20097;-77
2023/11/18 08:09:54;;;;;;;0.30;0.30;;;12.00;99.90;;;;;;5021481;28;20033;-76
2023/11/18 08:12:20;;;;;;;0.20;0.20;;;12.10;99.90;;;;;;5017788;28;20026;-77
2023/11/18 08:14:47;;;;;;;0.28;0.28;;;12.10;99.90;;;;;;5020987;28;20456;-77
2023/11/18 08:17:13;;;;;;;0.75;0.20;;;12.20;99.90;;;;;;4999909;28;20026;-77
2023/11/18 08:19:39;;;;;;;0.22;0.22;;;12.20;99.90;;;;;;5017412;28;20038;-76
2023/11/18 08:22:05;;;;;;;0.20;0.20;;;12.30;99.90;;;;;;5017402;28;20071;-77
2023/11/18 08:24:33;;;;;;;0.43;0.20;;;12.40;99.90;;;;;;5021453;28;20029;-78
2023/11/18 08:26:59;;;;;;;0.63;0.20;;;12.50;99.90;;;;;;4995998;28;20095;-77
2023/11/18 08:29:30;;;;;;;0.47;0.20;;;12.50;99.90;;;;;;5016134;28;20030;-78
2023/11/18 08:31:56;;;;;;;1.20;0.30;;;12.70;99.90;;;;;;5010110;28;20407;-77
2023/11/18 08:34:25;;;;;;;0.20;0.20;;;12.70;99.90;;;;;;5018205;28;20049;-76
2023/11/18 08:36:51;;;;;;;0.40;0.40;;;12.80;99.90;;;;;;5027095;28;20062;-76
2023/11/18 08:39:20;;;;;;;0.45;0.45;;;12.80;99.90;;;;;;4992321;28;20045;-77
2023/11/18 08:41:50;;;;;;;0.40;0.40;;;12.70;99.90;;;;;;5021456;28;20483;-78
2023/11/18 08:44:17;;;;;;;0.60;0.60;;;12.70;99.90;;;;;;5023383;28;20385;-78
2023/11/18 08:46:43;;;;;;;0.60;0.30;;;12.70;99.90;;;;;;5017087;28;20028;-77
2023/11/18 08:49:21;;;;;;;1.48;0.90;;;12.60;99.90;;;;;;5018111;28;20176;-76
2023/11/18 08:51:55;;;;;;;0.43;0.43;;;12.60;99.90;;;;;;5016884;28;20029;-77
2023/11/18 08:54:22;;;;;;;0.20;0.20;;;12.50;99.90;;;;;;5025005;28;20017;-78
2023/11/18 08:56:51;;;;;;;0.20;0.20;;;12.60;99.90;;;;;;5016111;28;20022;-77
2023/11/18 08:59:27;;;;;;;0.68;0.20;;;12.60;99.90;;;;;;4995383;28;20053;-77
2023/11/18 09:01:59;;;;;;;0.30;0.30;;;12.60;99.90;;;;;;5001323;28;20113;-77
2023/11/18 09:04:28;;;;;;;0.45;0.40;;;12.60;99.90;;;;;;5011326;28;20018;-76
2023/11/18 09:07:00;;;;;;;0.43;0.43;;;12.70;99.90;;;;;;5024532;28;20030;-77
2023/11/18 09:09:28;;;;;;;0.32;0.20;;;12.70;99.90;;;;;;5022153;28;20025;-76
2023/11/18 09:11:58;;;;;;;0.45;0.30;;;12.70;99.90;;;;;;5013430;28;20033;-77
2023/11/18 09:14:28;;;;;;;0.68;0.38;;;12.80;99.90;;;;;;5017228;28;20030;-77
2023/11/18 09:16:58;;;;;;;0.40;0.20;;;12.80;99.90;;;;;;5015440;28;20025;-77
2023/11/18 09:19:25;;;;;;;0.10;0.10;;;12.90;99.90;;;;;;4994806;28;20041;-77
2023/11/18 09:21:51;;;;;;;0.30;0.30;;;12.90;99.90;;;;;;4991246;28;20022;-77
2023/11/18 09:24:20;;;;;;;0.52;0.52;;;12.90;99.90;;;;;;5020382;28;20026;-76
2023/11/18 09:26:50;;;;;;;0.45;0.40;;;12.90;99.90;;;;;;5015154;28;20037;-76
2023/11/18 09:29:21;;;;;;;0.30;0.25;;;13.00;99.90;;;;;;5018846;28;20066;-77
2023/11/18 09:31:48;;;;;;;0.82;0.30;;;13.00;99.90;;;;;;5020334;28;20407;-77
2023/11/18 09:34:23;;;;;;;0.20;0.20;;;13.10;99.90;;;;;;5018714;28;20028;-77
2023/11/18 09:36:53;;;;;;;0.40;0.30;;;13.10;99.90;;;;;;5024817;28;20389;-77
2023/11/18 09:39:45;;;;;;;0.50;0.50;;;13.10;99.90;;;;;;5007650;28;20479;-77
2023/11/18 09:42:08;;;;;;;0.40;0.40;;;13.20;99.90;;;;;;5037903;28;20032;-77
2023/11/18 09:44:37;;;;;;;1.38;0.30;;;13.20;99.90;;;;;;5023230;28;20045;-77
2023/11/18 09:47:09;;;;;;;0.10;0.10;;;13.30;99.90;;;;;;5023641;28;20053;-77
2023/11/18 09:49:44;;;;;;;2.63;0.73;;;13.30;99.90;;;;;;5021398;28;20022;-77
2023/11/18 09:52:17;;;;;;;2.05;0.60;;;13.30;99.90;;;;;;5013307;28;20064;-77
2023/11/18 09:55:14;;;;;;;2.35;0.95;;;13.40;99.90;;;;;;5013092;28;20026;-77
2023/11/18 09:57:43;;;;;;;0.32;0.32;;;13.40;99.90;;;;;;5027677;28;20067;-77
2023/11/18 10:00:26;;;;;;;0.40;0.40;;;13.40;99.90;;;;;;5028271;28;20022;-77
2023/11/18 10:02:55;;;;;;;2.70;0.50;;;13.50;99.90;;;;;;5021502;28;20028;-77
2023/11/18 10:05:22;;;;;;;0.95;0.75;;;13.50;99.90;;;;;;5005196;28;20109;-78
2023/11/18 10:07:49;;;;;;;2.30;2.10;;;13.40;99.90;;;;;;5025604;28;20032;-77
2023/11/18 10:10:16;;;;;;;1.65;1.55;;;13.60;99.90;;;;;;5027282;28;20033;-77
2023/11/18 10:12:51;;;;;;;2.55;1.70;;;13.60;99.90;;;;;;5024403;28;20033;-76
2023/11/18 10:15:25;;;;;;;1.85;1.75;;;13.60;99.90;;;;;;5029209;28;20521;-76
2023/11/18 10:17:59;;;;;;;1.63;1.52;;;13.70;99.90;;;;;;5013710;28;20577;-76
2023/11/18 10:20:45;;;;;;;2.50;1.95;;;13.70;99.90;;;;;;5014095;28;20029;-76
2023/11/18 10:23:18;;;;;;;2.00;1.77;;;13.60;99.90;;;;;;5017570;28;20018;-76
2023/11/18 10:25:53;;;;;;;4.10;2.60;;;13.60;99.90;;;;;;5012470;28;20809;-76
2023/11/18 10:28:29;;;;;;;5.15;3.38;;;13.60;1.00;;;;;;5023645;28;20061;-76
2023/11/18 10:31:05;;;;;;;6.25;3.30;;;13.70;1.00;;;;;;5017444;28;20030;-76
2023/11/18 10:33:37;;;;;;;3.92;2.60;;;13.70;1.00;;;;;;5030193;28;20069;-76
2023/11/18 10:36:03;;;;;;;3.63;2.80;;;13.70;1.00;;;;;;5030996;28;20128;-77
2023/11/18 10:38:31;;;;;;;2.40;2.13;;;13.80;1.00;;;;;;5030536;28;20428;-76
2023/11/18 10:41:01;;;;;;;3.58;2.20;;;13.70;1.00;;;;;;5009510;28;20105;-76
2023/11/18 10:43:30;;;;;;;3.28;2.72;;;13.80;1.00;;;;;;5029184;28;20026;-76
2023/11/18 10:46:15;;;;;;;4.60;2.92;;;13.80;1.00;;;;;;5012562;28;20481;-76
2023/11/18 10:48:48;;;;;;;10.20;3.25;;;13.80;5.90;;;;;;5045908;28;20517;-73
2023/11/18 10:51:19;;;;;;;4.80;2.92;;;13.80;15.90;;;;;;5008948;28;20482;-73
2023/11/18 10:53:58;;;;;;;5.82;3.78;;;13.90;37.10;;;;;;5017110;28;20407;-73
2023/11/18 10:56:27;;;;;;;5.90;3.97;;;13.80;10.60;;;;;;5008027;28;20048;-73
2023/11/18 10:58:57;;;;;;;4.38;3.35;;;13.80;99.90;;;;;;5020371;28;20108;-74
2023/11/18 11:01:33;;;;;;;6.18;4.07;;;13.90;1.00;;;;;;5017743;28;20018;-74
2023/11/18 11:03:59;;;;;;;13.48;4.03;;;13.90;1.00;;;;;;5011285;28;20029;-74
2023/11/18 11:06:30;;;;;;;10.20;4.45;;;14.00;1.00;;;;;;5021442;28;20022;-73
2023/11/18 11:08:58;;;;;;;6.18;4.40;;;14.00;38.40;;;;;;5020049;28;20022;-73
2023/11/18 11:11:26;;;;;;;13.55;4.75;;;14.00;14.90;;;;;;5019670;28;20028;-73
2023/11/18 11:14:00;;;;;;;6.78;4.65;;;14.00;12.30;;;;;;5025388;28;20030;-74
2023/11/18 11:16:43;;;;;;;8.77;4.47;;;14.00;1.00;;;;;;5023199;28;20082;-74
2023/11/18 11:19:23;;;;;;;14.57;4.68;;;14.00;1.00;;;;;;5006437;28;20094;-73
2023/11/18 11:22:02;;;;;;;6.07;4.10;;;14.00;1.00;;;;;;5020741;28;20026;-74
2023/11/18 11:24:56;;;;;;;5.70;4.57;;;14.00;1.00;;;;;;5026433;28;20443;-74
2023/11/18 11:27:39;;;;;;;7.00;5.18;;;14.10;1.00;;;;;;5018962;28;20502;-74
2023/11/18 11:30:50;;;;;;;7.78;5.10;;;14.20;1.00;;;;;;5021036;28;20119;-74
2023/11/18 11:33:19;;;;;;;6.80;4.35;;;14.20;22.20;;;;;;5006992;28;20325;-73
2023/11/18 11:35:52;;;;;;;6.28;4.45;;;14.20;1.00;;;;;;4987732;28;20384;-74
2023/11/18 11:38:19;;;;;;;12.30;5.10;;;14.10;51.10;;;;;;5005264;28;20030;-74
2023/11/18 11:40:47;;;;;;;12.98;5.57;;;14.10;28.60;;;;;;5001704;28;20029;-73
2023/11/18 11:43:20;;;;;;;5.95;4.22;;;14.10;11.00;;;;;;5001795;28;20037;-74
2023/11/18 11:45:55;;;;;;;6.13;4.10;;;14.20;7.80;;;;;;5001710;28;20022;-74
2023/11/18 11:48:27;;;;;;;9.65;4.65;;;14.20;1.00;;;;;;5004684;28;20022;-73
2023/11/18 11:51:14;;;;;;;11.00;5.53;;;14.20;1.00;;;;;;5004321;28;20036;-74
2023/11/18 11:53:45;;;;;;;10.00;4.18;;;14.30;1.00;;;;;;5002335;28;20030;-74
2023/11/18 11:56:20;;;;;;;7.60;4.38;;;14.20;1.00;;;;;;4999391;28;20031;-73
2023/11/18 11:58:51;;;;;;;8.25;5.40;;;14.20;7.60;;;;;;5036765;28;20055;-73
2023/11/18 12:01:33;;;;;;;8.88;5.53;;;14.20;27.90;;;;;;4999442;28;20347;-73
2023/11/18 12:04:04;;;;;;;7.72;4.32;;;14.20;34.60;;;;;;5003578;28;20029;-73
2023/11/18 12:06:33;;;;;;;6.40;4.10;;;14.20;1.00;;;;;;5001112;28;20010;-74
2023/11/18 12:08:59;;;;;;;8.40;4.10;;;14.20;1.00;;;;;;5001951;28;20273;-74
2023/11/18 12:11:27;;;;;;;7.55;4.97;;;14.20;1.00;;;;;;4990171;28;20556;-74
2023/11/18 12:14:19;;;;;;;8.90;4.72;;;14.20;1.00;;;;;;4987533;28;20045;-74
2023/11/18 12:19:46;;;;;;;4.75;3.30;;;14.20;1.00;;;;;;5000616;28;20087;-73
2023/11/18 12:22:30;;;;;;;4.20;2.80;;;14.20;1.00;;;;;;5002248;28;20082;-74
2023/11/18 12:24:59;;;;;;;7.13;3.05;;;14.20;1.00;;;;;;4986104;28;20086;-74
2023/11/18 12:27:40;;;;;;;2.70;2.50;;;14.20;1.00;;;;;;4982808;28;20075;-73
2023/11/18 12:30:35;;;;;;;2.65;2.45;;;14.20;1.00;;;;;;5001308;28;20109;-74
2023/11/18 12:33:08;;;;;;;5.10;3.15;;;14.10;1.00;;;;;;5001567;28;20037;-74
2023/11/18 12:35:52;;;;;;;7.05;3.35;;;14.10;1.00;;;;;;5013944;28;20095;-74
2023/11/18 12:38:57;;;;;;;5.32;3.17;;;14.10;1.00;;;;;;5019116;28;20086;-74
2023/11/18 12:41:41;;;;;;;3.63;3.33;;;14.10;1.00;;;;;;5025983;28;20025;-74
2023/11/18 12:44:21;;;;;;;4.68;3.50;;;14.20;1.00;;;;;;5024004;28;20026;-73
2023/11/18 12:46:53;;;;;;;5.07;4.57;;;14.10;1.00;;;;;;5023658;28;20026;-73
2023/11/18 12:49:23;;;;;;;7.20;4.00;;;14.20;1.00;;;;;;5028345;28;20537;-73
2023/11/18 12:51:50;;;;;;;6.57;3.50;;;14.10;1.00;;;;;;5020118;28;20029;-73
2023/11/18 12:54:18;;;;;;;4.38;3.13;;;14.20;1.00;;;;;;4988323;28;20513;-73
2023/11/18 12:56:48;;;;;;;3.53;3.22;;;14.20;1.00;;;;;;5018553;28;20021;-73
2023/11/18 12:59:20;;;;;;;4.18;3.42;;;14.20;1.00;;;;;;5022503;28;20057;-74
2023/11/18 13:02:02;;;;;;;9.15;4.65;;;14.10;1.00;;;;;;5014916;28;20082;-73
2023/11/18 13:04:28;;;;;;;6.68;4.95;;;14.10;1.00;;;;;;5015409;28;20025;-73
2023/11/18 13:06:54;;;;;;;8.25;5.47;;;14.10;1.00;;;;;;5018258;28;20029;-74
2023/11/18 13:09:25;;;;;;;5.50;4.72;;;14.10;1.00;;;;;;5030049;28;20396;-73